Time;durP1;ratioP1;P1;durP2;ratioP2;P2;SDS_P1;SDS_P2;PMS_P1;PMS_P2;Temp;Humidity;BMP_temperature;BMP_pressure;BME280_temperature;BME280_humidity;BME280_pressure;Samples;Min_cycle;Max_cycle;Signal;HPM_P1;HPM_P2
2022/10/05 00:00:47;;;;;;;14.10;7.70;;;;;;;;;;4893447;29;20744;-59
2022/10/05 00:03:13;;;;;;;13.18;7.43;;;;;;;;;;4895563;29;20036;-60
2022/10/05 00:05:38;;;;;;;11.68;7.20;;;;;;;;;;4893425;29;20041;-59
2022/10/05 00:08:23;;;;;;;14.25;7.07;;;;;;;;;;4895633;29;20041;-60
2022/10/05 00:10:49;;;;;;;13.20;7.00;;;;;;;;;;4876259;29;20037;-59
2022/10/05 00:13:24;;;;;;;13.18;6.80;;;;;;;;;;4893393;29;20096;-59
2022/10/05 00:15:58;;;;;;;15.70;7.60;;;;;;;;;;4888341;29;20044;-59
2022/10/05 00:18:25;;;;;;;13.02;6.82;;;;;;;;;;4895212;29;20414;-59
2022/10/05 00:20:51;;;;;;;9.95;6.35;;;;;;;;;;4894429;29;20056;-59
2022/10/05 00:23:28;;;;;;;11.35;6.55;;;;;;;;;;4879951;29;20032;-59
2022/10/05 00:25:56;;;;;;;13.80;7.40;;;;;;;;;;4893202;29;20036;-59
2022/10/05 00:28:25;;;;;;;14.25;7.85;;;;;;;;;;4894216;29;20032;-59
2022/10/05 00:30:54;;;;;;;12.73;7.03;;;;;;;;;;4892622;29;20055;-59
2022/10/05 00:33:19;;;;;;;12.75;7.38;;;;;;;;;;4896704;29;20032;-59
2022/10/05 00:35:45;;;;;;;16.85;7.60;;;;;;;;;;4892398;29;20048;-59
2022/10/05 00:38:10;;;;;;;15.93;8.07;;;;;;;;;;4898479;29;20036;-58
2022/10/05 00:40:59;;;;;;;12.02;7.32;;;;;;;;;;4897622;29;20040;-59
2022/10/05 00:44:00;;;;;;;12.23;7.53;;;;;;;;;;4897823;29;20048;-58
2022/10/05 00:46:39;;;;;;;12.68;7.55;;;;;;;;;;4885253;29;20054;-59
2022/10/05 00:49:40;;;;;;;11.82;7.47;;;;;;;;;;4897351;29;20063;-59
2022/10/05 00:52:30;;;;;;;13.23;7.30;;;;;;;;;;4898964;29;20037;-59
2022/10/05 00:55:04;;;;;;;12.20;7.60;;;;;;;;;;4886146;29;20075;-59
2022/10/05 00:57:53;;;;;;;11.35;7.20;;;;;;;;;;4897180;29;20044;-59
2022/10/05 01:00:24;;;;;;;13.32;6.53;;;;;;;;;;4899160;29;20040;-59
2022/10/05 01:03:07;;;;;;;10.85;7.15;;;;;;;;;;4894166;29;20059;-59
2022/10/05 01:06:02;;;;;;;12.23;7.03;;;;;;;;;;4879146;29;20446;-59
2022/10/05 01:09:03;;;;;;;12.75;6.22;;;;;;;;;;4890770;29;20067;-59
2022/10/05 01:11:52;;;;;;;12.48;6.82;;;;;;;;;;4896201;29;20036;-59
2022/10/05 01:14:40;;;;;;;14.18;7.25;;;;;;;;;;4882435;29;20040;-59
2022/10/05 01:17:19;;;;;;;13.25;7.10;;;;;;;;;;4884964;29;20470;-59
2022/10/05 01:20:05;;;;;;;12.32;7.30;;;;;;;;;;4898603;29;20036;-59
2022/10/05 01:23:03;;;;;;;12.68;7.35;;;;;;;;;;4888929;29;20045;-60
2022/10/05 01:25:54;;;;;;;13.75;7.32;;;;;;;;;;4828807;29;20048;-59
2022/10/05 01:28:43;;;;;;;12.82;7.57;;;;;;;;;;4870882;29;20048;-59
2022/10/05 01:31:33;;;;;;;13.80;7.18;;;;;;;;;;4898840;29;20111;-59
2022/10/05 01:34:36;;;;;;;13.05;6.93;;;;;;;;;;4893258;29;20032;-60
2022/10/05 01:37:01;;;;;;;12.82;7.40;;;;;;;;;;4898910;29;20048;-59
2022/10/05 01:39:57;;;;;;;13.57;7.68;;;;;;;;;;4896539;29;20033;-59
2022/10/05 01:42:32;;;;;;;17.63;7.85;;;;;;;;;;4894619;29;20159;-57
2022/10/05 01:45:19;;;;;;;11.80;7.25;;;;;;;;;;4876575;29;20047;-59
2022/10/05 01:47:48;;;;;;;11.68;7.13;;;;;;;;;;4893090;29;20068;-58
2022/10/05 01:50:39;;;;;;;11.63;7.25;;;;;;;;;;4897279;29;20537;-57
2022/10/05 01:53:13;;;;;;;12.77;7.78;;;;;;;;;;4891755;29;20025;-59
2022/10/05 01:55:51;;;;;;;11.30;7.35;;;;;;;;;;4888105;29;20037;-59
2022/10/05 01:58:20;;;;;;;11.77;7.22;;;;;;;;;;4889940;29;20478;-58
2022/10/05 02:01:26;;;;;;;12.35;7.80;;;;;;;;;;4889873;29;20489;-57
2022/10/05 02:04:00;;;;;;;13.75;7.72;;;;;;;;;;4876681;29;20752;-58
2022/10/05 02:06:31;;;;;;;13.95;7.80;;;;;;;;;;4895861;29;20132;-58
2022/10/05 02:09:16;;;;;;;13.68;7.65;;;;;;;;;;4886051;29;20070;-58
2022/10/05 02:11:46;;;;;;;13.70;7.63;;;;;;;;;;4888565;29;20100;-58
2022/10/05 02:14:17;;;;;;;12.63;8.03;;;;;;;;;;4871159;29;20056;-59
2022/10/05 02:16:46;;;;;;;10.95;7.43;;;;;;;;;;4896722;29;20032;-58
2022/10/05 02:19:20;;;;;;;12.65;7.43;;;;;;;;;;4895964;29;20514;-58
2022/10/05 02:21:51;;;;;;;13.23;7.35;;;;;;;;;;4896515;29;20434;-58
2022/10/05 02:24:22;;;;;;;14.13;7.53;;;;;;;;;;4886463;29;20048;-58
2022/10/05 02:26:49;;;;;;;15.32;7.90;;;;;;;;;;4874448;29;20111;-56
2022/10/05 02:29:18;;;;;;;11.73;7.60;;;;;;;;;;4879294;29;20553;-59
2022/10/05 02:32:03;;;;;;;15.32;7.85;;;;;;;;;;4896013;29;20079;-58
2022/10/05 02:34:39;;;;;;;13.00;7.60;;;;;;;;;;4894336;29;20060;-58
2022/10/05 02:37:29;;;;;;;11.68;7.35;;;;;;;;;;4896325;29;20044;-59
2022/10/05 02:40:09;;;;;;;15.32;7.15;;;;;;;;;;4896166;29;20028;-58
2022/10/05 02:43:05;;;;;;;13.18;7.65;;;;;;;;;;4892178;29;20039;-59
2022/10/05 02:45:36;;;;;;;12.35;7.53;;;;;;;;;;4890532;29;20512;-59
2022/10/05 02:48:30;;;;;;;13.45;7.97;;;;;;;;;;4886148;29;20041;-59
2022/10/05 02:51:02;;;;;;;12.63;7.80;;;;;;;;;;4865842;29;20049;-58
2022/10/05 02:53:54;;;;;;;15.73;8.10;;;;;;;;;;4897370;29;20048;-59
2022/10/05 02:56:32;;;;;;;14.00;8.32;;;;;;;;;;4896624;29;20039;-58
2022/10/05 02:58:58;;;;;;;17.75;8.30;;;;;;;;;;4894459;29;20538;-59
2022/10/05 03:01:41;;;;;;;12.82;7.78;;;;;;;;;;4896183;29;20118;-58
2022/10/05 03:04:29;;;;;;;13.43;8.02;;;;;;;;;;4889206;29;20047;-58
2022/10/05 03:07:11;;;;;;;13.57;7.53;;;;;;;;;;4880018;29;20615;-58
2022/10/05 03:09:43;;;;;;;14.35;7.93;;;;;;;;;;4894869;29;20056;-58
2022/10/05 03:12:23;;;;;;;19.08;8.43;;;;;;;;;;4895336;29;20039;-59
2022/10/05 03:14:57;;;;;;;12.77;7.63;;;;;;;;;;4892948;29;20064;-59
2022/10/05 03:17:33;;;;;;;13.50;7.57;;;;;;;;;;4894323;29;20485;-59
2022/10/05 03:20:07;;;;;;;13.55;7.65;;;;;;;;;;4894959;29;20065;-59
2022/10/05 03:22:51;;;;;;;14.75;8.25;;;;;;;;;;4896224;29;20152;-60
2022/10/05 03:25:53;;;;;;;13.70;7.90;;;;;;;;;;4894501;29;20116;-57
2022/10/05 03:28:21;;;;;;;13.98;8.10;;;;;;;;;;4870072;29;20049;-57
2022/10/05 03:31:01;;;;;;;13.93;7.78;;;;;;;;;;4895213;29;20035;-58
2022/10/05 03:33:39;;;;;;;14.00;8.13;;;;;;;;;;4890615;29;20033;-60
2022/10/05 03:36:15;;;;;;;14.05;7.90;;;;;;;;;;4880124;29;20064;-60
2022/10/05 03:38:44;;;;;;;15.52;7.72;;;;;;;;;;4894907;29;20050;-59
2022/10/05 03:41:29;;;;;;;12.45;7.97;;;;;;;;;;4880650;29;20037;-58
2022/10/05 03:44:15;;;;;;;15.82;7.97;;;;;;;;;;4888191;29;20036;-59
2022/10/05 03:47:10;;;;;;;15.02;8.00;;;;;;;;;;4894306;29;20059;-58
2022/10/05 03:50:01;;;;;;;13.80;8.50;;;;;;;;;;4877904;29;20119;-58
2022/10/05 03:52:46;;;;;;;13.90;8.27;;;;;;;;;;4896082;29;20100;-58
2022/10/05 03:55:19;;;;;;;14.48;8.45;;;;;;;;;;4895908;29;20446;-57
2022/10/05 03:57:47;;;;;;;12.88;7.88;;;;;;;;;;4893858;29;20509;-58
2022/10/05 04:00:13;;;;;;;16.13;7.97;;;;;;;;;;4882393;29;20047;-58
2022/10/05 04:02:53;;;;;;;13.50;7.90;;;;;;;;;;4888062;29;20037;-58
2022/10/05 04:05:23;;;;;;;13.93;7.97;;;;;;;;;;4888200;29;20041;-59
2022/10/05 04:07:56;;;;;;;14.88;8.20;;;;;;;;;;4895473;29;20048;-57
2022/10/05 04:10:26;;;;;;;18.35;7.95;;;;;;;;;;4896119;29;20451;-57
2022/10/05 04:13:01;;;;;;;12.38;7.78;;;;;;;;;;4892594;29;20073;-58
2022/10/05 04:15:46;;;;;;;10.65;7.25;;;;;;;;;;4895822;29;20782;-58
2022/10/05 04:18:37;;;;;;;18.85;8.10;;;;;;;;;;4897041;29;20482;-58
2022/10/05 04:21:27;;;;;;;14.10;7.90;;;;;;;;;;4893849;29;20041;-57
2022/10/05 04:23:59;;;;;;;15.18;7.65;;;;;;;;;;4894956;29;20079;-57
2022/10/05 04:26:50;;;;;;;15.55;7.80;;;;;;;;;;4894124;29;20036;-58
2022/10/05 04:29:34;;;;;;;13.00;7.60;;;;;;;;;;4873463;29;20409;-58
2022/10/05 04:32:09;;;;;;;12.50;7.50;;;;;;;;;;4894188;29;20119;-58
2022/10/05 04:34:50;;;;;;;11.80;7.43;;;;;;;;;;4894220;29;20040;-58
2022/10/05 04:37:27;;;;;;;10.85;7.47;;;;;;;;;;4895641;29;20032;-58
2022/10/05 04:40:10;;;;;;;12.80;7.13;;;;;;;;;;4894940;29;20043;-58
2022/10/05 04:43:05;;;;;;;12.90;7.00;;;;;;;;;;4893219;29;20037;-58
2022/10/05 04:45:49;;;;;;;12.75;7.43;;;;;;;;;;4889742;29;20508;-57
2022/10/05 04:48:29;;;;;;;11.10;6.78;;;;;;;;;;4895523;29;20136;-57
2022/10/05 04:51:16;;;;;;;9.75;6.50;;;;;;;;;;4894487;29;20048;-58
2022/10/05 04:53:53;;;;;;;12.55;6.57;;;;;;;;;;4894963;29;20036;-58
2022/10/05 04:56:37;;;;;;;10.63;6.95;;;;;;;;;;4888038;29;20044;-58
2022/10/05 05:00:13;;;;;;;10.32;6.40;;;;;;;;;;4891319;29;20040;-58
2022/10/05 05:02:55;;;;;;;12.13;6.80;;;;;;;;;;4816325;29;20042;-57
2022/10/05 05:05:30;;;;;;;12.75;6.53;;;;;;;;;;4817201;29;20063;-57
2022/10/05 05:07:58;;;;;;;12.70;6.85;;;;;;;;;;4819972;29;20445;-57
2022/10/05 05:10:54;;;;;;;9.40;6.20;;;;;;;;;;4818988;29;20049;-58
2022/10/05 05:14:02;;;;;;;11.93;6.70;;;;;;;;;;4810355;29;20050;-57
2022/10/05 05:16:44;;;;;;;11.43;6.50;;;;;;;;;;4791888;29;20035;-57
2022/10/05 05:19:36;;;;;;;13.00;6.50;;;;;;;;;;4800725;29;20078;-58
2022/10/05 05:22:35;;;;;;;10.25;6.07;;;;;;;;;;4806879;29;20046;-58
2022/10/05 05:25:23;;;;;;;10.65;6.30;;;;;;;;;;4821185;29;20035;-58
2022/10/05 05:27:56;;;;;;;8.50;6.20;;;;;;;;;;4821042;29;20050;-58
2022/10/05 05:31:07;;;;;;;13.05;6.78;;;;;;;;;;4821198;29;20042;-58
2022/10/05 05:34:09;;;;;;;10.13;6.63;;;;;;;;;;4855238;29;20043;-58
2022/10/05 05:37:04;;;;;;;14.77;6.70;;;;;;;;;;4895756;29;20050;-56
2022/10/05 05:39:35;;;;;;;11.05;6.85;;;;;;;;;;4882552;29;20053;-58
2022/10/05 05:42:26;;;;;;;10.05;6.47;;;;;;;;;;4896371;29;20029;-58
2022/10/05 05:44:52;;;;;;;;;;;;;;;;;;4898942;29;20036;-56
2022/10/05 05:47:36;;;;;;;11.70;6.72;;;;;;;;;;4898194;29;20375;-58
2022/10/05 05:50:07;;;;;;;10.95;6.60;;;;;;;;;;4897492;29;20044;-57
2022/10/05 05:52:33;;;;;;;11.90;6.60;;;;;;;;;;4898095;29;20037;-57
2022/10/05 05:55:05;;;;;;;16.52;6.95;;;;;;;;;;4897226;29;20063;-57
2022/10/05 05:57:39;;;;;;;10.65;7.10;;;;;;;;;;4896911;29;20037;-57
2022/10/05 06:00:27;;;;;;;12.95;6.75;;;;;;;;;;4897333;29;20032;-57
2022/10/05 06:03:00;;;;;;;11.27;6.75;;;;;;;;;;4896177;29;20079;-57
2022/10/05 06:05:30;;;;;;;11.15;6.93;;;;;;;;;;4897649;29;20056;-58
2022/10/05 06:08:00;;;;;;;9.88;6.22;;;;;;;;;;4897656;29;20032;-58
2022/10/05 06:10:33;;;;;;;13.20;6.53;;;;;;;;;;4899201;29;20036;-58
2022/10/05 06:13:06;;;;;;;11.25;6.43;;;;;;;;;;4895547;29;20040;-58
2022/10/05 06:15:40;;;;;;;11.40;6.57;;;;;;;;;;4898079;29;20041;-59
2022/10/05 06:18:14;;;;;;;11.88;6.53;;;;;;;;;;4898129;29;20305;-59
2022/10/05 06:20:47;;;;;;;12.65;6.00;;;;;;;;;;4896727;29;20072;-58
2022/10/05 06:23:18;;;;;;;11.32;6.60;;;;;;;;;;4897996;29;20036;-57
2022/10/05 06:26:01;;;;;;;8.90;6.10;;;;;;;;;;4896607;29;20033;-58
2022/10/05 06:28:28;;;;;;;9.95;5.60;;;;;;;;;;4897829;29;20379;-58
2022/10/05 06:31:09;;;;;;;9.98;5.28;;;;;;;;;;4896778;29;20384;-57
2022/10/05 06:33:58;;;;;;;8.20;5.30;;;;;;;;;;4893758;29;20123;-58
2022/10/05 06:36:54;;;;;;;7.45;4.90;;;;;;;;;;4896904;29;20095;-58
2022/10/05 06:39:23;;;;;;;8.18;5.20;;;;;;;;;;4897709;29;20474;-58
2022/10/05 06:42:22;;;;;;;7.65;5.10;;;;;;;;;;4876215;29;20036;-58
2022/10/05 06:44:56;;;;;;;8.98;5.00;;;;;;;;;;4896471;29;20044;-58
2022/10/05 06:47:33;;;;;;;11.10;4.70;;;;;;;;;;4897538;29;20040;-58
2022/10/05 06:50:20;;;;;;;8.52;4.93;;;;;;;;;;4897375;29;20389;-57
2022/10/05 06:52:52;;;;;;;7.15;4.70;;;;;;;;;;4896343;29;20040;-59
2022/10/05 06:55:54;;;;;;;8.65;4.88;;;;;;;;;;4897398;29;20115;-58
2022/10/05 06:58:34;;;;;;;6.88;4.10;;;;;;;;;;4886219;29;20496;-58
2022/10/05 07:01:23;;;;;;;8.43;4.43;;;;;;;;;;4896154;29;20040;-58
2022/10/05 07:04:14;;;;;;;6.75;4.47;;;;;;;;;;4896148;29;20425;-58
2022/10/05 07:06:43;;;;;;;;;;;;;;;;;;4897340;29;20076;-58
2022/10/05 07:09:47;;;;;;;6.22;3.70;;;;;;;;;;4897163;29;19912;-58
2022/10/05 07:12:39;;;;;;;8.43;4.13;;;;;;;;;;4894782;29;20064;-58
2022/10/05 07:15:53;;;;;;;10.75;4.32;;;;;;;;;;4896148;29;20039;-58
2022/10/05 07:18:37;;;;;;;6.63;4.10;;;;;;;;;;4891467;29;20127;-58
2022/10/05 07:21:34;;;;;;;7.68;4.13;;;;;;;;;;4878980;29;20080;-58
2022/10/05 07:24:44;;;;;;;9.18;3.90;;;;;;;;;;4896711;29;20033;-59
2022/10/05 07:27:22;;;;;;;7.33;4.10;;;;;;;;;;4869432;29;20087;-59
2022/10/05 07:30:03;;;;;;;6.35;3.90;;;;;;;;;;4896034;29;20025;-59
2022/10/05 07:32:38;;;;;;;6.82;3.90;;;;;;;;;;4896830;29;20044;-57
2022/10/05 07:38:41;;;;;;;6.32;3.78;;;;;;;;;;4883540;29;20055;-57
2022/10/05 07:41:18;;;;;;;6.95;4.07;;;;;;;;;;4893714;29;20581;-58
2022/10/05 07:44:12;;;;;;;5.60;3.80;;;;;;;;;;4896888;29;20035;-58
2022/10/05 07:46:53;;;;;;;6.90;3.90;;;;;;;;;;4879457;29;20475;-58
2022/10/05 07:49:25;;;;;;;6.05;3.80;;;;;;;;;;4897400;29;20037;-58
2022/10/05 07:51:59;;;;;;;5.85;3.70;;;;;;;;;;4895938;29;20060;-58
2022/10/05 07:54:48;;;;;;;6.72;3.45;;;;;;;;;;4896382;29;20036;-58
2022/10/05 07:57:23;;;;;;;5.65;3.95;;;;;;;;;;4894202;29;20035;-58
2022/10/05 08:00:24;;;;;;;6.90;3.47;;;;;;;;;;4894864;29;20047;-58
2022/10/05 08:02:57;;;;;;;14.88;4.15;;;;;;;;;;4895200;29;20041;-58
2022/10/05 08:05:29;;;;;;;6.88;3.75;;;;;;;;;;4895704;29;20505;-58
2022/10/05 08:08:22;;;;;;;;;;;;;;;;;;;;;
2022/10/05 08:11:03;;;;;;;8.10;3.75;;;;;;;;;;4892337;29;20052;-58
2022/10/05 08:13:46;;;;;;;6.32;3.55;;;;;;;;;;4894828;29;20037;-58
2022/10/05 08:16:13;;;;;;;5.85;3.50;;;;;;;;;;4892945;29;20143;-58
2022/10/05 08:18:57;;;;;;;6.57;3.63;;;;;;;;;;4895857;29;20040;-58
2022/10/05 08:21:30;;;;;;;7.32;3.70;;;;;;;;;;4895268;29;20184;-58
2022/10/05 08:24:04;;;;;;;6.72;3.67;;;;;;;;;;4894328;29;20040;-58
2022/10/05 08:26:45;;;;;;;5.60;3.65;;;;;;;;;;4894067;29;20096;-59
2022/10/05 08:29:40;;;;;;;5.40;3.58;;;;;;;;;;4879481;29;20043;-58
2022/10/05 08:32:15;;;;;;;6.15;3.75;;;;;;;;;;4871446;29;20044;-58
2022/10/05 08:34:52;;;;;;;8.38;3.60;;;;;;;;;;4895683;29;20477;-58
2022/10/05 08:37:29;;;;;;;6.05;3.50;;;;;;;;;;4893674;29;20052;-58
2022/10/05 08:40:22;;;;;;;5.50;3.70;;;;;;;;;;4896276;29;20044;-58
2022/10/05 08:43:04;;;;;;;5.82;3.70;;;;;;;;;;4893740;29;21974;-59
2022/10/05 08:45:48;;;;;;;6.25;3.53;;;;;;;;;;4895392;29;20493;-57
2022/10/05 08:48:32;;;;;;;4.90;3.30;;;;;;;;;;4894578;29;20119;-58
2022/10/05 08:51:14;;;;;;;5.95;3.42;;;;;;;;;;4894909;29;20178;-58
2022/10/05 08:54:04;;;;;;;5.93;3.40;;;;;;;;;;4895336;29;20048;-58
2022/10/05 08:56:35;;;;;;;6.50;3.37;;;;;;;;;;4890060;29;20455;-59
2022/10/05 08:59:09;;;;;;;5.25;3.00;;;;;;;;;;4889080;29;20486;-58
2022/10/05 09:01:46;;;;;;;8.02;3.70;;;;;;;;;;4899099;29;20084;-56
2022/10/05 09:04:23;;;;;;;4.65;3.05;;;;;;;;;;4897113;29;20044;-58
2022/10/05 09:07:08;;;;;;;5.45;3.55;;;;;;;;;;4896714;29;20051;-59
2022/10/05 09:10:15;;;;;;;7.65;3.00;;;;;;;;;;4900220;29;20041;-59
2022/10/05 09:13:12;;;;;;;4.90;3.45;;;;;;;;;;4877352;29;20096;-58
2022/10/05 09:16:08;;;;;;;7.90;3.30;;;;;;;;;;4897590;29;20025;-58
2022/10/05 09:18:51;;;;;;;6.85;3.40;;;;;;;;;;4899505;29;20037;-58
2022/10/05 09:21:32;;;;;;;5.60;3.65;;;;;;;;;;4896918;29;20024;-59
2022/10/05 09:24:13;;;;;;;5.25;3.40;;;;;;;;;;4898835;29;20043;-59
2022/10/05 09:26:53;;;;;;;4.80;3.38;;;;;;;;;;4897379;29;20045;-59
2022/10/05 09:29:49;;;;;;;5.82;3.60;;;;;;;;;;4897869;29;20040;-60
2022/10/05 09:32:33;;;;;;;7.85;3.38;;;;;;;;;;4897924;29;20641;-59
2022/10/05 09:35:13;;;;;;;5.63;3.70;;;;;;;;;;4897904;29;20036;-60
2022/10/05 09:38:13;;;;;;;6.45;3.70;;;;;;;;;;4887101;29;20037;-59
2022/10/05 09:40:46;;;;;;;5.22;3.40;;;;;;;;;;4880847;29;20052;-60
2022/10/05 09:43:27;;;;;;;4.18;3.15;;;;;;;;;;4897756;29;20254;-60
2022/10/05 09:46:29;;;;;;;6.35;3.50;;;;;;;;;;4898284;29;20032;-59
2022/10/05 09:49:04;;;;;;;6.57;3.67;;;;;;;;;;4898065;29;20043;-59
2022/10/05 09:51:35;;;;;;;5.28;3.17;;;;;;;;;;4897015;29;20184;-59
2022/10/05 09:54:35;;;;;;;5.72;3.50;;;;;;;;;;4897533;29;20496;-59
2022/10/05 09:57:25;;;;;;;5.93;3.50;;;;;;;;;;4896147;29;20076;-60
2022/10/05 10:00:08;;;;;;;6.75;3.78;;;;;;;;;;4882351;29;20041;-60
2022/10/05 10:03:01;;;;;;;5.65;3.25;;;;;;;;;;4897126;29;20084;-59
2022/10/05 10:05:54;;;;;;;5.00;3.40;;;;;;;;;;4896845;29;20049;-58
2022/10/05 10:08:53;;;;;;;8.40;3.75;;;;;;;;;;4897682;29;20052;-58
2022/10/05 10:11:49;;;;;;;5.03;3.33;;;;;;;;;;4889940;29;20049;-60
2022/10/05 10:14:57;;;;;;;6.72;3.70;;;;;;;;;;4898057;29;20213;-59
2022/10/05 10:17:45;;;;;;;4.97;3.30;;;;;;;;;;4894609;29;20040;-59
2022/10/05 10:20:29;;;;;;;4.47;3.03;;;;;;;;;;4897823;29;20108;-59
2022/10/05 10:23:13;;;;;;;5.63;3.53;;;;;;;;;;4895881;29;20025;-60
2022/10/05 10:26:08;;;;;;;6.72;3.40;;;;;;;;;;4897586;29;20474;-58
2022/10/05 10:29:04;;;;;;;5.82;3.13;;;;;;;;;;4891148;29;20040;-58
2022/10/05 10:31:35;;;;;;;5.60;3.20;;;;;;;;;;4898023;29;20040;-58
2022/10/05 10:34:00;;;;;;;7.82;3.28;;;;;;;;;;4869941;29;20037;-59
2022/10/05 10:36:51;;;;;;;5.63;3.20;;;;;;;;;;4888973;29;20028;-58
2022/10/05 10:39:35;;;;;;;9.25;3.47;;;;;;;;;;4896572;29;20033;-59
2022/10/05 10:42:23;;;;;;;8.20;3.30;;;;;;;;;;4894470;29;20043;-59
2022/10/05 10:45:18;;;;;;;6.15;3.20;;;;;;;;;;4897351;29;20048;-59
2022/10/05 10:47:59;;;;;;;6.20;3.13;;;;;;;;;;4895207;29;20028;-59
2022/10/05 10:50:46;;;;;;;5.68;3.20;;;;;;;;;;4898707;29;20184;-59
2022/10/05 10:53:51;;;;;;;4.72;2.90;;;;;;;;;;4896574;29;20047;-59
2022/10/05 10:56:40;;;;;;;4.80;2.90;;;;;;;;;;4878944;29;20252;-58
2022/10/05 10:59:41;;;;;;;3.45;2.30;;;;;;;;;;4894896;29;20045;-59
2022/10/05 11:02:31;;;;;;;4.85;2.70;;;;;;;;;;4880007;29;20029;-59
2022/10/05 11:05:32;;;;;;;6.40;3.10;;;;;;;;;;4897298;29;20041;-58
2022/10/05 11:08:34;;;;;;;5.55;2.40;;;;;;;;;;4847265;29;20092;-59
2022/10/05 11:11:16;;;;;;;7.47;2.70;;;;;;;;;;4897042;29;20112;-59
2022/10/05 11:14:20;;;;;;;7.00;2.90;;;;;;;;;;4894764;29;20055;-59
2022/10/05 11:17:18;;;;;;;4.07;2.72;;;;;;;;;;4896551;29;20044;-59
2022/10/05 11:19:58;;;;;;;5.45;2.92;;;;;;;;;;4853650;29;20083;-59
2022/10/05 11:22:35;;;;;;;6.00;3.08;;;;;;;;;;4896799;29;20033;-62
2022/10/05 11:25:31;;;;;;;4.53;2.67;;;;;;;;;;4896578;29;20043;-59
2022/10/05 11:28:13;;;;;;;6.93;3.00;;;;;;;;;;4878006;29;20115;-59
2022/10/05 11:31:04;;;;;;;4.78;2.80;;;;;;;;;;4896552;29;20084;-59
2022/10/05 11:34:19;;;;;;;5.22;2.80;;;;;;;;;;4896390;29;20052;-60
2022/10/05 11:37:09;;;;;;;4.75;3.00;;;;;;;;;;4882949;29;20135;-60
2022/10/05 11:39:53;;;;;;;4.00;2.40;;;;;;;;;;4895705;29;20055;-59
2022/10/05 11:42:52;;;;;;;4.95;2.63;;;;;;;;;;4894656;29;20037;-59
2022/10/05 11:45:38;;;;;;;6.00;2.55;;;;;;;;;;4894545;29;20083;-59
2022/10/05 11:48:26;;;;;;;3.90;2.47;;;;;;;;;;4895206;29;20048;-58
2022/10/05 11:51:00;;;;;;;3.97;2.53;;;;;;;;;;4896303;29;20044;-62
2022/10/05 11:53:45;;;;;;;8.00;2.75;;;;;;;;;;4895416;29;20489;-58
2022/10/05 11:56:27;;;;;;;4.40;2.80;;;;;;;;;;4896355;29;20058;-60
2022/10/05 11:59:00;;;;;;;4.13;2.60;;;;;;;;;;4878340;29;20859;-59
2022/10/05 12:01:41;;;;;;;4.47;2.75;;;;;;;;;;4896049;29;20033;-60
2022/10/05 12:04:32;;;;;;;5.20;2.65;;;;;;;;;;4894723;29;20047;-60
2022/10/05 12:07:03;;;;;;;5.00;2.95;;;;;;;;;;4869196;29;20095;-59
2022/10/05 12:10:13;;;;;;;5.20;2.70;;;;;;;;;;4895425;29;20039;-59
2022/10/05 12:13:12;;;;;;;5.72;2.92;;;;;;;;;;4894670;29;20033;-59
2022/10/05 12:15:59;;;;;;;4.40;2.78;;;;;;;;;;4895121;29;20542;-59
2022/10/05 12:18:31;;;;;;;7.03;2.72;;;;;;;;;;4895735;29;20115;-59
2022/10/05 12:21:30;;;;;;;5.40;2.55;;;;;;;;;;4896157;29;20430;-59
2022/10/05 12:24:18;;;;;;;4.80;2.60;;;;;;;;;;4895421;29;20047;-59
2022/10/05 12:26:56;;;;;;;6.22;2.80;;;;;;;;;;4896528;29;20037;-59
2022/10/05 12:29:24;;;;;;;4.93;2.88;;;;;;;;;;4895621;29;20471;-59
2022/10/05 12:32:04;;;;;;;4.85;2.67;;;;;;;;;;4895417;29;20037;-59
2022/10/05 12:35:03;;;;;;;7.05;3.00;;;;;;;;;;4895506;29;20032;-59
2022/10/05 12:37:47;;;;;;;3.70;2.58;;;;;;;;;;4895210;29;20040;-59
2022/10/05 12:40:25;;;;;;;4.20;2.58;;;;;;;;;;4881051;29;20108;-60
2022/10/05 12:43:08;;;;;;;5.40;2.70;;;;;;;;;;4894395;29;20033;-59
2022/10/05 12:46:03;;;;;;;4.60;2.90;;;;;;;;;;4893991;29;20036;-59
2022/10/05 12:48:56;;;;;;;4.65;2.80;;;;;;;;;;4895847;29;20367;-59
2022/10/05 12:51:40;;;;;;;4.30;2.47;;;;;;;;;;4896349;29;20335;-59
2022/10/05 12:54:48;;;;;;;3.65;2.50;;;;;;;;;;4894592;29;20094;-59
2022/10/05 12:57:31;;;;;;;5.70;2.70;;;;;;;;;;4836348;29;20042;-59
2022/10/05 13:00:03;;;;;;;3.40;2.40;;;;;;;;;;4885046;29;20052;-60
2022/10/05 13:02:43;;;;;;;3.80;2.42;;;;;;;;;;4895396;29;20067;-59
2022/10/05 13:05:09;;;;;;;4.72;2.50;;;;;;;;;;4894339;29;20044;-60
2022/10/05 13:07:47;;;;;;;4.53;2.38;;;;;;;;;;4894929;29;20044;-59
2022/10/05 13:10:35;;;;;;;5.32;2.20;;;;;;;;;;4894825;29;20048;-59
2022/10/05 13:13:26;;;;;;;3.42;2.35;;;;;;;;;;4893413;29;20044;-59
2022/10/05 13:16:14;;;;;;;4.22;2.45;;;;;;;;;;4895049;29;20500;-59
2022/10/05 13:19:13;;;;;;;4.57;2.30;;;;;;;;;;4895059;29;20041;-58
2022/10/05 13:22:15;;;;;;;3.45;2.33;;;;;;;;;;4894911;29;20040;-58
2022/10/05 13:24:53;;;;;;;3.58;2.30;;;;;;;;;;4877668;29;20081;-58
2022/10/05 13:27:23;;;;;;;4.18;2.47;;;;;;;;;;4877540;29;20093;-58
2022/10/05 13:30:13;;;;;;;6.90;2.60;;;;;;;;;;4894575;29;20092;-59
2022/10/05 13:32:47;;;;;;;3.95;2.30;;;;;;;;;;4894979;29;20043;-60
2022/10/05 13:35:16;;;;;;;4.47;2.80;;;;;;;;;;4894144;29;20859;-59
2022/10/05 13:38:10;;;;;;;3.50;2.30;;;;;;;;;;4894763;29;20115;-59
2022/10/05 13:40:58;;;;;;;2.60;2.10;;;;;;;;;;4895686;29;20120;-59
2022/10/05 13:43:48;;;;;;;4.18;2.35;;;;;;;;;;4893571;29;20041;-59
2022/10/05 13:46:19;;;;;;;3.00;2.28;;;;;;;;;;4896256;29;20063;-59
2022/10/05 13:49:29;;;;;;;3.38;2.20;;;;;;;;;;4898210;29;20123;-60
2022/10/05 13:52:06;;;;;;;4.50;2.30;;;;;;;;;;4854943;29;20144;-59
2022/10/05 13:54:47;;;;;;;3.55;2.20;;;;;;;;;;4841144;29;20277;-59
2022/10/05 13:57:46;;;;;;;3.78;2.03;;;;;;;;;;4840472;29;20061;-59
2022/10/05 14:00:17;;;;;;;5.28;2.00;;;;;;;;;;4857916;29;20043;-59
2022/10/05 14:02:46;;;;;;;3.58;1.90;;;;;;;;;;4858112;29;20130;-60
2022/10/05 14:05:23;;;;;;;5.60;2.08;;;;;;;;;;4857307;29;20041;-59
2022/10/05 14:08:00;;;;;;;3.67;2.00;;;;;;;;;;4858507;29;20041;-59
2022/10/05 14:10:39;;;;;;;5.10;2.15;;;;;;;;;;4858142;29;20128;-59
2022/10/05 14:13:30;;;;;;;5.47;2.00;;;;;;;;;;4857050;29;20037;-59
2022/10/05 14:15:58;;;;;;;3.72;1.80;;;;;;;;;;4857792;29;20057;-59
2022/10/05 14:18:29;;;;;;;5.95;1.90;;;;;;;;;;4858436;29;20045;-60
2022/10/05 14:21:17;;;;;;;2.97;1.88;;;;;;;;;;4856572;29;20077;-59
2022/10/05 14:23:43;;;;;;;3.30;1.67;;;;;;;;;;4880132;29;20080;-59
2022/10/05 14:26:33;;;;;;;4.88;1.70;;;;;;;;;;4896043;29;20079;-59
2022/10/05 14:29:22;;;;;;;3.00;1.80;;;;;;;;;;4896983;29;20526;-60
2022/10/05 14:32:13;;;;;;;2.28;1.83;;;;;;;;;;4897574;29;20088;-59
2022/10/05 14:35:07;;;;;;;2.67;1.75;;;;;;;;;;4897400;29;20024;-58
2022/10/05 14:37:54;;;;;;;2.85;1.70;;;;;;;;;;4879892;29;20055;-59
2022/10/05 14:40:28;;;;;;;3.00;1.80;;;;;;;;;;4896029;29;20029;-58
2022/10/05 14:42:54;;;;;;;4.43;1.90;;;;;;;;;;4895995;29;20484;-58
2022/10/05 14:45:23;;;;;;;4.85;1.80;;;;;;;;;;4897022;29;20043;-59
2022/10/05 14:47:52;;;;;;;5.95;2.00;;;;;;;;;;4897338;29;20398;-59
2022/10/05 14:50:24;;;;;;;2.55;2.00;;;;;;;;;;4896808;29;20087;-59
2022/10/05 14:53:10;;;;;;;3.67;1.70;;;;;;;;;;4898388;29;20040;-58
2022/10/05 14:55:54;;;;;;;2.38;1.60;;;;;;;;;;4897075;29;20029;-59
2022/10/05 14:58:42;;;;;;;3.40;1.90;;;;;;;;;;4897292;29;20371;-60
2022/10/05 15:01:29;;;;;;;3.63;1.80;;;;;;;;;;4896250;29;20037;-59
2022/10/05 15:04:07;;;;;;;4.22;1.88;;;;;;;;;;4879006;29;20041;-58
2022/10/05 15:06:40;;;;;;;3.75;2.10;;;;;;;;;;4888135;29;20057;-59
2022/10/05 15:09:36;;;;;;;4.72;2.08;;;;;;;;;;4895834;29;20044;-59
2022/10/05 15:12:02;;;;;;;3.20;1.80;;;;;;;;;;4894978;29;20107;-59
2022/10/05 15:14:38;;;;;;;3.17;1.90;;;;;;;;;;4896686;29;20047;-59
2022/10/05 15:17:18;;;;;;;3.15;2.10;;;;;;;;;;4896088;29;20048;-60
2022/10/05 15:19:59;;;;;;;4.30;2.00;;;;;;;;;;4880807;29;20034;-59
2022/10/05 15:22:30;;;;;;;;;;;;;;;;;;4894728;29;20386;-59
2022/10/05 15:25:12;;;;;;;5.38;2.25;;;;;;;;;;4880382;29;20288;-58
2022/10/05 15:28:02;;;;;;;5.07;2.22;;;;;;;;;;4892939;29;20171;-59
2022/10/05 15:30:31;;;;;;;2.72;2.10;;;;;;;;;;4893816;29;20057;-60
2022/10/05 15:33:11;;;;;;;3.53;1.95;;;;;;;;;;4891892;29;20524;-59
2022/10/05 15:35:40;;;;;;;2.63;1.95;;;;;;;;;;4879793;29;21777;-58
2022/10/05 15:38:12;;;;;;;4.78;2.10;;;;;;;;;;4896527;29;20474;-58
2022/10/05 15:40:43;;;;;;;5.13;2.13;;;;;;;;;;4894902;29;20048;-58
2022/10/05 15:43:19;;;;;;;3.28;2.10;;;;;;;;;;4895896;29;20489;-58
2022/10/05 15:46:05;;;;;;;2.28;2.08;;;;;;;;;;4896146;29;20396;-57
2022/10/05 15:49:15;;;;;;;3.03;2.20;;;;;;;;;;4884616;29;20107;-58
2022/10/05 15:51:49;;;;;;;6.55;2.10;;;;;;;;;;4896337;29;20038;-58
2022/10/05 15:54:43;;;;;;;3.63;2.30;;;;;;;;;;4896462;29;20648;-59
2022/10/05 15:57:23;;;;;;;4.50;2.40;;;;;;;;;;4894641;29;20088;-58
2022/10/05 15:59:52;;;;;;;;;;;;;;;;;;4896110;29;20060;-57
2022/10/05 16:02:27;;;;;;;3.67;2.20;;;;;;;;;;4895112;29;20284;-59
2022/10/05 16:05:05;;;;;;;3.97;2.17;;;;;;;;;;4895944;29;20139;-57
2022/10/05 16:10:25;;;;;;;3.58;2.30;;;;;;;;;;4893921;29;20040;-59
2022/10/05 16:13:03;;;;;;;3.67;2.10;;;;;;;;;;4895128;29;20040;-57
2022/10/05 16:15:41;;;;;;;5.53;2.20;;;;;;;;;;4879021;29;22159;-59
2022/10/05 16:18:29;;;;;;;5.13;2.72;;;;;;;;;;4894900;29;20055;-56